16:02
Airports
Links
Donate
Help keep this website running!
PayPal
Bitcoin
METAR
PHNG 211457Z 06008G15KT 7SM SCT033 SCT050 27/21 A3000 RMK SLP154 T02670206 55010
Current Weather Conditions at PHNG
VFR 14:57:00 21-09-17
Altimeter:30.00 hg
Temp:26.7°c 79°f
Dew point:20.6°c 68°f
Wind:8 knots, 9.2 mph, 4 m/s, from 60°
Visibility:7.0 statute miles
5000(SCT) Scattered
3300(SCT) Scattered
Past METAR reports
VFR 13:57:00 21-09-17
Altimeter:30.00 hg
Temp:26.7°c 79°f
Dew point:20.6°c 68°f
Wind:8 knots, 9.2 mph, 4 m/s, from 60°
Visibility:7.0 statute miles
3500(BKN) Broken
2900(SCT) Scattered
PHNG 211357Z 06008G14KT 7SM SCT029 BKN035 27/21 A3000 RMK SLP153 T02670206
VFR 12:57:00 21-09-17
Altimeter:30.01 hg
Temp:26.7°c 79°f
Dew point:20.6°c 68°f
Wind:8 knots, 9.2 mph, 4 m/s, from 60°
Visibility:7.0 statute miles
4800(BKN) Broken
3700(SCT) Scattered
2900(FEW) A few
PHNG 211257Z 06008KT 7SM FEW029 SCT037 BKN048 27/21 A3001 RMK SLP158 T02670206
VFR 11:57:00 21-09-17
Altimeter:30.03 hg
Temp:26.7°c 79°f
Dew point:20.0°c 68°f
Wind:10 knots, 11.5 mph, 5 m/s, from 70°
Visibility:7.0 statute miles
4500(SCT) Scattered
2900(FEW) A few
PHNG 211157Z 07010G17KT 7SM FEW029 SCT045 27/20 A3003 RMK SLP164 70001 T02670200 10278 20267 57011
VFR 10:57:00 21-09-17
Altimeter:30.05 hg
Temp:26.7°c 79°f
Dew point:20.6°c 68°f
Wind:10 knots, 11.5 mph, 5 m/s, from 70°
Visibility:7.0 statute miles
2600(FEW) A few
PHNG 211057Z 07010KT 7SM FEW026 27/21 A3005 RMK SLP169 T02670206
TAF
TAF PHNG 2115/2215 06010G18KT 9999 FEW030 SCT050 QNH2999INS TEMPO 2115/2120 06008KT BKN030 BKN045 TEMPO 2121/2201 8000 -SHRA BKN025 BKN040 FM220800 06008KT 9999 SCT025 BKN045 QNH3004INS T30/2123Z T26/2214Z
Forecast at PHNG
15:00 21-09-17 to 08:00 22-09-17
Wind:10 Knots from 60°
Visibility:6.21 statute miles
3000FEW A few
5000SCT Scattered
TEMPO 15:00 21-09-17 to 20:00 21-09-17
Wind:8 Knots from 60°
3000BKN Broken
4500BKN Broken
TEMPO 21:00 21-09-17 to 01:00 22-09-17
-SHRA
Visibility:4.97 statute miles
2500BKN Broken
4000BKN Broken
FM 08:00 22-09-17 to 15:00 22-09-17
Wind:8 Knots from 60°
Visibility:6.21 statute miles
2500SCT Scattered
4500BKN Broken